createdAt,value
2023-01-23T00:00:20.710Z,10.60
2023-01-23T00:02:53.226Z,15.10
2023-01-23T00:05:25.359Z,15.70
2023-01-23T00:07:57.884Z,14.57
2023-01-23T00:10:29.894Z,10.48
2023-01-23T00:13:01.923Z,18.63
2023-01-23T00:15:33.959Z,18.58
2023-01-23T00:18:06.082Z,14.45
2023-01-23T00:20:41.320Z,11.13
2023-01-23T00:23:15.253Z,15.57
2023-01-23T00:25:47.375Z,13.55
2023-01-23T00:28:19.472Z,14.07
2023-01-23T00:30:51.570Z,14.52
2023-01-23T00:33:23.616Z,14.35
2023-01-23T00:35:55.904Z,9.40
2023-01-23T00:38:28.271Z,16.50
2023-01-23T00:41:00.410Z,11.95
2023-01-23T00:43:32.877Z,8.60
2023-01-23T00:46:05.423Z,13.68
2023-01-23T00:48:37.492Z,10.07
2023-01-23T00:51:10.716Z,13.15
2023-01-23T00:53:43.241Z,13.88
2023-01-23T00:56:15.546Z,15.07
2023-01-23T00:59:01.625Z,11.90
2023-01-23T01:01:33.895Z,10.65
2023-01-23T01:04:32.499Z,10.00
2023-01-23T01:07:04.733Z,9.32
2023-01-23T01:09:36.796Z,12.77
2023-01-23T01:12:09.056Z,14.25
2023-01-23T01:14:41.135Z,13.95
2023-01-23T01:17:13.123Z,8.80
2023-01-23T01:20:05.961Z,11.18
2023-01-23T01:22:37.915Z,17.20
2023-01-23T01:25:12.333Z,12.73
2023-01-23T01:27:44.656Z,16.33
2023-01-23T01:30:20.113Z,16.52
2023-01-23T01:32:55.165Z,12.68
2023-01-23T01:35:27.117Z,16.10
2023-01-23T01:38:00.027Z,12.50
2023-01-23T01:40:37.348Z,10.15
2023-01-23T01:43:23.428Z,18.13
2023-01-23T01:46:16.130Z,13.02
2023-01-23T01:49:02.654Z,8.98
2023-01-23T01:51:53.305Z,14.50
2023-01-23T01:54:37.600Z,9.60
2023-01-23T01:57:25.316Z,7.88
2023-01-23T02:00:04.602Z,12.95
2023-01-23T02:03:01.448Z,10.93
2023-01-23T02:05:44.357Z,15.77
2023-01-23T02:08:21.893Z,11.57
2023-01-23T02:10:54.092Z,12.50
2023-01-23T02:13:38.924Z,11.00
2023-01-23T02:16:18.691Z,13.98
2023-01-23T02:18:57.660Z,10.82
2023-01-23T02:21:30.132Z,9.85
2023-01-23T02:24:28.978Z,13.68
2023-01-23T02:27:01.063Z,15.18
2023-01-23T02:29:48.401Z,10.57
2023-01-23T02:32:22.146Z,15.75
2023-01-23T02:34:57.934Z,12.25
2023-01-23T02:37:34.566Z,11.10
2023-01-23T02:40:07.860Z,11.90
2023-01-23T02:42:44.952Z,17.27
2023-01-23T02:45:16.924Z,12.85
2023-01-23T02:47:49.014Z,11.68
2023-01-23T02:50:59.654Z,17.48
2023-01-23T02:53:31.734Z,20.30
2023-01-23T02:56:03.972Z,16.88
2023-01-23T02:58:57.261Z,16.13
2023-01-23T03:01:31.478Z,11.65
2023-01-23T03:04:06.542Z,12.23
2023-01-23T03:06:38.651Z,8.98
2023-01-23T03:09:14.686Z,11.02
2023-01-23T03:11:49.352Z,11.20
2023-01-23T03:14:27.735Z,14.07
2023-01-23T03:16:59.876Z,14.63
2023-01-23T03:19:31.986Z,15.30
2023-01-23T03:22:04.135Z,9.15
2023-01-23T03:24:36.130Z,14.90
2023-01-23T03:27:08.541Z,10.68
2023-01-23T03:29:58.919Z,16.38
2023-01-23T03:32:30.927Z,15.20
2023-01-23T03:35:02.914Z,13.57
2023-01-23T03:37:35.013Z,7.13
2023-01-23T03:40:27.036Z,9.32
2023-01-23T03:42:59.063Z,16.45
2023-01-23T03:45:32.084Z,10.43
2023-01-23T03:48:04.335Z,12.70
2023-01-23T03:50:36.356Z,13.13
2023-01-23T03:53:08.328Z,12.15
2023-01-23T03:55:40.301Z,13.05
2023-01-23T03:58:30.886Z,11.60
2023-01-23T04:01:07.644Z,16.30
2023-01-23T04:03:39.643Z,13.60
2023-01-23T04:06:11.758Z,16.95
2023-01-23T04:08:43.819Z,13.35
2023-01-23T04:11:15.884Z,8.73
2023-01-23T04:13:47.850Z,12.57
2023-01-23T04:16:30.159Z,14.32
2023-01-23T04:19:02.109Z,12.00
2023-01-23T04:21:34.110Z,11.15
2023-01-23T04:24:06.760Z,10.00
2023-01-23T04:27:00.486Z,11.35
2023-01-23T04:29:33.347Z,17.10
2023-01-23T04:32:05.567Z,14.73
2023-01-23T04:34:37.589Z,14.70
2023-01-23T04:37:09.651Z,11.20
2023-01-23T04:39:41.663Z,14.40
2023-01-23T04:42:13.688Z,13.02
2023-01-23T04:44:45.783Z,13.63
2023-01-23T04:47:17.773Z,12.85
2023-01-23T04:49:49.740Z,16.00
2023-01-23T04:52:21.779Z,11.05
2023-01-23T04:54:53.809Z,12.25
2023-01-23T04:57:26.505Z,12.07
2023-01-23T05:00:00.349Z,11.43
2023-01-23T05:02:32.686Z,14.45
2023-01-23T05:05:07.238Z,11.85
2023-01-23T05:07:39.783Z,10.07
2023-01-23T05:10:12.912Z,17.98
2023-01-23T05:12:45.149Z,13.23
2023-01-23T05:15:17.458Z,15.82
2023-01-23T05:17:49.873Z,14.63
2023-01-23T05:20:23.638Z,13.25
2023-01-23T05:22:57.646Z,13.30
2023-01-23T05:25:30.459Z,11.77
2023-01-23T05:28:02.650Z,12.63
2023-01-23T05:30:34.800Z,16.20
2023-01-23T05:33:06.863Z,11.13
2023-01-23T05:35:39.867Z,9.50
2023-01-23T05:38:13.388Z,14.05
2023-01-23T05:40:45.368Z,11.57
2023-01-23T05:43:17.667Z,12.55
2023-01-23T05:45:49.842Z,13.98
2023-01-23T05:48:21.864Z,14.02
2023-01-23T05:50:53.840Z,12.63
2023-01-23T05:53:25.819Z,18.13
2023-01-23T05:55:57.773Z,10.95
2023-01-23T05:58:29.786Z,10.35
2023-01-23T06:01:05.527Z,11.85
2023-01-23T06:03:37.517Z,13.75
2023-01-23T06:06:09.558Z,11.60
2023-01-23T06:08:41.790Z,14.32
2023-01-23T06:11:13.781Z,14.88
2023-01-23T06:13:45.778Z,14.13
2023-01-23T06:16:17.795Z,15.82
2023-01-23T06:18:49.815Z,15.07
2023-01-23T06:21:21.964Z,13.98
2023-01-23T06:23:53.951Z,14.48
2023-01-23T06:26:26.042Z,13.70
2023-01-23T06:28:58.027Z,14.07
2023-01-23T06:34:31.836Z,12.43
2023-01-23T06:37:04.016Z,12.52
2023-01-23T06:39:35.979Z,14.45
2023-01-23T06:42:10.333Z,17.75
2023-01-23T06:44:43.439Z,13.18
2023-01-23T06:47:16.758Z,14.00
2023-01-23T06:49:48.757Z,15.57
2023-01-23T06:52:22.433Z,14.52
2023-01-23T06:54:54.789Z,17.50
2023-01-23T06:57:26.727Z,17.25
2023-01-23T06:59:59.361Z,20.42
2023-01-23T07:05:57.080Z,19.55
2023-01-23T07:08:33.086Z,18.88
2023-01-23T07:11:07.091Z,18.38
2023-01-23T07:13:39.417Z,23.77
2023-01-23T07:16:11.495Z,17.48
2023-01-23T07:18:43.466Z,21.73
2023-01-23T07:21:16.319Z,18.75
2023-01-23T07:23:48.296Z,19.83
2023-01-23T07:26:20.386Z,25.30
2023-01-23T07:28:52.574Z,23.45
2023-01-23T07:31:24.632Z,22.58
2023-01-23T07:33:56.715Z,18.98
2023-01-23T07:36:29.833Z,20.65
2023-01-23T07:39:01.791Z,24.67
2023-01-23T07:41:33.810Z,18.77
2023-01-23T07:44:06.701Z,19.17
2023-01-23T07:46:38.821Z,22.42
2023-01-23T07:52:33.674Z,24.02
2023-01-23T07:55:06.532Z,17.70
2023-01-23T07:57:38.469Z,25.48
2023-01-23T08:00:11.190Z,23.38
2023-01-23T08:02:43.436Z,22.52
2023-01-23T08:05:15.556Z,21.05
2023-01-23T08:07:47.532Z,21.25
2023-01-23T08:10:29.855Z,25.58
2023-01-23T08:13:01.834Z,25.35
2023-01-23T08:15:33.949Z,21.80
2023-01-23T08:18:08.848Z,28.38
2023-01-23T08:21:00.825Z,20.15
2023-01-23T08:23:34.693Z,23.58
2023-01-23T08:26:08.879Z,24.38
2023-01-23T08:28:42.782Z,23.10
2023-01-23T08:31:15.109Z,25.92
2023-01-23T08:33:59.438Z,23.17
2023-01-23T08:36:31.892Z,25.17
2023-01-23T08:39:04.615Z,20.48
2023-01-23T08:41:36.633Z,29.95
2023-01-23T08:44:08.631Z,23.52
2023-01-23T08:46:40.692Z,27.65
2023-01-23T08:49:13.379Z,21.98
2023-01-23T08:51:45.478Z,24.10
2023-01-23T08:54:17.425Z,25.60
2023-01-23T08:56:51.222Z,23.23
2023-01-23T08:59:23.352Z,25.83
2023-01-23T09:05:36.977Z,24.73
2023-01-23T09:08:08.995Z,27.17
2023-01-23T09:10:41.233Z,22.85
2023-01-23T09:13:13.317Z,23.33
2023-01-23T09:15:45.948Z,25.60
2023-01-23T09:18:18.525Z,22.35
2023-01-23T09:20:51.300Z,24.63
2023-01-23T09:23:24.376Z,21.50
2023-01-23T09:26:02.856Z,22.00
2023-01-23T09:28:40.201Z,23.52
2023-01-23T09:31:14.590Z,22.92
2023-01-23T09:33:49.246Z,22.05
2023-01-23T09:36:33.706Z,21.50
2023-01-23T09:39:13.171Z,24.20
2023-01-23T09:41:46.370Z,26.50
2023-01-23T09:44:39.793Z,21.65
2023-01-23T09:47:35.719Z,22.88
2023-01-23T09:50:18.837Z,24.25
2023-01-23T09:53:13.839Z,21.70
2023-01-23T09:56:02.420Z,27.63
2023-01-23T09:59:29.615Z,21.88
2023-01-23T10:02:01.949Z,26.02
2023-01-23T10:04:34.101Z,20.17
2023-01-23T10:07:47.063Z,21.67
2023-01-23T10:10:45.706Z,21.95
2023-01-23T10:13:31.761Z,26.30
2023-01-23T10:16:38.060Z,20.95
2023-01-23T10:19:35.432Z,25.52
2023-01-23T10:22:33.035Z,21.77
2023-01-23T10:25:27.331Z,20.42
2023-01-23T10:28:17.425Z,21.90
2023-01-23T10:30:56.493Z,21.75
2023-01-23T10:33:49.075Z,22.48
2023-01-23T10:36:47.850Z,21.92
2023-01-23T10:40:12.732Z,20.20
2023-01-23T10:42:44.717Z,21.95
2023-01-23T10:45:19.898Z,23.58
2023-01-23T10:47:55.370Z,22.90
2023-01-23T10:50:40.261Z,23.02
2023-01-23T10:53:21.124Z,23.65
2023-01-23T10:55:58.135Z,26.63
2023-01-23T10:58:37.998Z,25.08
2023-01-23T11:01:32.424Z,23.20
2023-01-23T11:04:21.713Z,26.60
2023-01-23T11:07:25.828Z,24.83
2023-01-23T11:10:23.434Z,25.25
2023-01-23T11:12:56.198Z,21.83
2023-01-23T11:15:32.458Z,25.55
2023-01-23T11:19:38.830Z,28.30
2023-01-23T11:22:41.071Z,22.15
2023-01-23T11:26:09.083Z,26.60
2023-01-23T11:28:50.153Z,21.40
2023-01-23T11:31:27.141Z,28.08
2023-01-23T11:34:23.616Z,28.65
2023-01-23T11:37:10.931Z,31.40
2023-01-23T11:39:47.139Z,27.42
2023-01-23T11:42:19.771Z,27.10
2023-01-23T11:44:52.413Z,25.75
2023-01-23T11:48:12.054Z,29.10
2023-01-23T11:50:55.640Z,21.55
2023-01-23T11:53:52.355Z,24.33
2023-01-23T11:56:47.793Z,24.33
2023-01-23T11:59:56.462Z,24.98
2023-01-23T12:02:51.167Z,32.90
2023-01-23T12:05:50.084Z,25.63
2023-01-23T12:08:47.742Z,31.02
2023-01-23T12:11:22.499Z,27.25
2023-01-23T12:18:08.118Z,30.60
2023-01-23T12:21:03.896Z,29.27
2023-01-23T12:23:47.688Z,24.15
2023-01-23T12:26:22.796Z,28.38
2023-01-23T12:29:19.526Z,30.40
2023-01-23T12:32:49.646Z,32.83
2023-01-23T12:36:33.230Z,33.60
2023-01-23T12:39:53.679Z,41.00
2023-01-23T12:42:51.973Z,32.53
2023-01-23T12:45:30.360Z,31.45
2023-01-23T12:48:14.976Z,31.05
2023-01-23T12:51:02.264Z,33.53
2023-01-23T12:53:38.723Z,36.53
2023-01-23T12:56:19.237Z,36.42
2023-01-23T12:59:15.891Z,35.30
2023-01-23T13:02:00.334Z,32.08
2023-01-23T13:05:07.027Z,36.80
2023-01-23T13:08:05.636Z,33.15
2023-01-23T13:11:22.153Z,31.05
2023-01-23T13:13:54.398Z,30.23
2023-01-23T13:17:02.925Z,37.92
2023-01-23T13:20:03.287Z,37.17
2023-01-23T13:25:18.818Z,30.15
2023-01-23T13:30:36.736Z,31.17
2023-01-23T13:33:14.989Z,28.52
2023-01-23T13:35:49.947Z,31.98
2023-01-23T13:38:21.809Z,29.50
2023-01-23T13:41:05.682Z,29.50
2023-01-23T13:44:22.954Z,34.70
2023-01-23T14:20:28.388Z,27.65
2023-01-23T14:23:00.436Z,27.33
2023-01-23T14:25:33.249Z,31.67
2023-01-23T14:28:06.393Z,30.73
2023-01-23T14:30:40.933Z,23.77
2023-01-23T14:33:18.182Z,30.48
2023-01-23T14:35:51.373Z,29.95
2023-01-23T14:38:33.384Z,27.48
2023-01-23T14:41:08.622Z,32.65
2023-01-23T14:43:42.964Z,27.10
2023-01-23T14:46:21.486Z,29.58
2023-01-23T14:48:55.985Z,26.33
2023-01-23T14:51:31.854Z,26.30
2023-01-23T14:54:29.690Z,26.95
2023-01-23T14:57:05.835Z,26.35
2023-01-23T14:59:43.048Z,27.15
2023-01-23T15:02:34.295Z,26.52
2023-01-23T15:05:10.207Z,25.23
2023-01-23T15:07:58.507Z,29.85
2023-01-23T15:10:47.677Z,29.83
2023-01-23T15:13:36.361Z,30.77
2023-01-23T15:16:37.969Z,32.80
2023-01-23T15:19:21.346Z,27.70
2023-01-23T15:22:20.272Z,28.08
2023-01-23T15:24:52.469Z,31.05
2023-01-23T15:27:34.274Z,28.88
2023-01-23T15:30:39.773Z,24.42
2023-01-23T15:33:45.312Z,28.05
2023-01-23T15:36:31.192Z,25.77
2023-01-23T15:39:03.782Z,35.63
2023-01-23T15:41:45.099Z,28.10
2023-01-23T15:44:21.024Z,28.13
2023-01-23T15:46:52.990Z,32.40
2023-01-23T15:49:26.525Z,35.17
2023-01-23T15:52:16.475Z,26.35
2023-01-23T15:54:52.268Z,28.77
2023-01-23T15:57:25.323Z,28.67
2023-01-23T15:59:57.351Z,32.97
2023-01-23T16:02:31.543Z,25.15
2023-01-23T16:05:05.004Z,32.08
2023-01-23T16:07:43.098Z,29.75
2023-01-23T16:10:26.912Z,28.17
2023-01-23T16:12:59.060Z,30.23
2023-01-23T16:15:34.500Z,25.85
2023-01-23T16:18:08.045Z,25.67
2023-01-23T16:20:45.873Z,27.92
2023-01-23T16:23:24.864Z,26.98
2023-01-23T16:25:57.010Z,26.80
2023-01-23T16:28:30.187Z,28.58
2023-01-23T16:31:02.239Z,27.25
2023-01-23T16:33:34.368Z,27.35
2023-01-23T16:36:07.888Z,33.58
2023-01-23T16:38:40.202Z,26.27
2023-01-23T16:41:15.738Z,28.13
2023-01-23T16:43:48.300Z,27.70
2023-01-23T16:46:20.582Z,29.58
2023-01-23T16:48:58.013Z,31.50
2023-01-23T16:51:30.304Z,29.23
2023-01-23T16:54:11.313Z,29.90
2023-01-23T16:56:54.496Z,32.03
2023-01-23T16:59:32.634Z,23.33
2023-01-23T17:02:22.528Z,27.70
2023-01-23T17:07:26.900Z,27.70
2023-01-23T17:10:45.333Z,27.77
2023-01-23T17:13:20.386Z,27.98
2023-01-23T17:15:57.760Z,29.88
2023-01-23T17:18:33.894Z,27.92
2023-01-23T17:21:06.318Z,30.65
2023-01-23T17:23:38.270Z,28.33
2023-01-23T17:26:17.862Z,28.65
2023-01-23T17:28:49.873Z,28.35
2023-01-23T17:31:28.575Z,25.98
2023-01-23T17:34:02.865Z,30.45
2023-01-23T17:36:35.953Z,34.75
2023-01-23T17:39:11.125Z,32.80
2023-01-23T17:41:43.657Z,34.97
2023-01-23T17:44:15.694Z,34.20
2023-01-23T17:46:47.976Z,31.13
2023-01-23T17:49:31.356Z,37.60
2023-01-23T17:52:03.439Z,32.80
2023-01-23T17:54:36.959Z,37.50
2023-01-23T17:57:19.865Z,34.88
2023-01-23T17:59:55.504Z,31.40
2023-01-23T18:02:29.130Z,35.63
2023-01-23T18:05:01.220Z,38.80
2023-01-23T18:07:48.572Z,37.70
2023-01-23T18:10:28.585Z,37.90
2023-01-23T18:14:08.486Z,35.53
2023-01-23T18:16:45.456Z,39.17
2023-01-23T18:19:27.573Z,44.00
2023-01-23T18:22:00.090Z,51.17
2023-01-23T18:24:33.492Z,53.42
2023-01-23T18:27:24.647Z,47.97
2023-01-23T18:30:43.365Z,46.38
2023-01-23T18:33:56.423Z,42.33
2023-01-23T18:37:35.253Z,37.22
2023-01-23T18:40:46.116Z,38.20
2023-01-23T18:43:40.939Z,32.10
2023-01-23T18:46:17.067Z,42.60
2023-01-23T18:48:49.793Z,34.28
2023-01-23T18:51:43.347Z,39.20
2023-01-23T18:54:20.776Z,32.42
2023-01-23T18:57:13.193Z,38.25
2023-01-23T19:00:24.686Z,31.33
2023-01-23T19:03:04.356Z,36.53
2023-01-23T19:05:36.709Z,41.25
2023-01-23T19:08:35.558Z,35.70
2023-01-23T19:11:31.818Z,38.67
2023-01-23T19:14:41.548Z,38.50
2023-01-23T19:17:31.532Z,34.28
2023-01-23T19:20:29.740Z,35.17
2023-01-23T19:23:07.852Z,37.13
2023-01-23T19:25:40.095Z,33.45
2023-01-23T19:28:12.551Z,34.92
2023-01-23T19:30:45.037Z,34.75
2023-01-23T19:33:20.568Z,36.85
2023-01-23T19:35:56.589Z,44.45
2023-01-23T19:38:28.879Z,44.50
2023-01-23T19:41:00.911Z,37.40
2023-01-23T19:43:33.091Z,41.75
2023-01-23T19:46:05.420Z,35.45
2023-01-23T19:48:41.764Z,38.25
2023-01-23T19:51:19.919Z,41.97
2023-01-23T19:53:52.150Z,35.10
2023-01-23T19:56:27.648Z,40.50
2023-01-23T19:58:59.825Z,37.50
2023-01-23T20:01:48.776Z,36.85
2023-01-23T20:04:28.853Z,47.75
2023-01-23T20:07:01.139Z,37.33
2023-01-23T20:09:33.455Z,36.88
2023-01-23T20:12:06.187Z,38.60
2023-01-23T20:14:38.349Z,45.72
2023-01-23T20:17:17.306Z,34.67
2023-01-23T20:19:50.045Z,37.90
2023-01-23T20:22:22.099Z,34.08
2023-01-23T20:24:57.182Z,38.03
2023-01-23T20:27:30.118Z,41.00
2023-01-23T20:30:07.615Z,44.90
2023-01-23T20:32:44.077Z,43.53
2023-01-23T20:35:16.596Z,57.78
2023-01-23T20:37:59.413Z,85.85
2023-01-23T20:41:09.607Z,52.10
2023-01-23T20:43:52.159Z,40.03
2023-01-23T20:46:30.677Z,45.45
2023-01-23T20:49:03.015Z,38.80
2023-01-23T20:51:45.752Z,46.78
2023-01-23T20:55:30.387Z,39.17
2023-01-23T20:58:25.631Z,44.83
2023-01-23T21:00:58.131Z,42.42
2023-01-23T21:03:33.390Z,36.72
2023-01-23T21:06:26.662Z,39.67
2023-01-23T21:15:07.502Z,44.00
2023-01-23T21:17:39.466Z,44.03
2023-01-23T21:20:12.160Z,43.97
2023-01-23T21:22:44.157Z,39.10
2023-01-23T21:25:16.256Z,43.63
2023-01-23T21:27:48.248Z,43.22
2023-01-23T21:30:21.324Z,40.33
2023-01-23T21:32:55.369Z,44.47
2023-01-23T21:35:27.787Z,44.15
2023-01-23T21:40:51.065Z,37.03
2023-01-23T21:43:29.978Z,39.58
2023-01-23T21:46:02.069Z,43.35
2023-01-23T21:48:34.852Z,43.50
2023-01-23T21:51:16.950Z,45.30
2023-01-23T21:53:50.763Z,42.70
2023-01-23T21:56:24.234Z,39.53
2023-01-23T21:58:56.308Z,51.38
2023-01-23T22:01:42.335Z,37.85
2023-01-23T22:04:24.075Z,40.22
2023-01-23T22:06:56.915Z,42.53
2023-01-23T22:09:30.377Z,41.08
2023-01-23T22:12:02.461Z,44.55
2023-01-23T22:14:34.477Z,41.13
2023-01-23T22:17:08.077Z,46.70
2023-01-23T22:19:40.071Z,48.08
2023-01-23T22:22:13.505Z,39.40
2023-01-23T22:24:45.555Z,48.70
2023-01-23T22:27:30.875Z,41.45
2023-01-23T22:30:02.884Z,40.67
2023-01-23T22:35:39.976Z,45.28
2023-01-23T22:38:14.935Z,55.28
2023-01-23T22:41:00.035Z,45.17
2023-01-23T22:43:33.628Z,45.30
2023-01-23T22:46:15.767Z,50.70
2023-01-23T22:48:47.789Z,43.88
2023-01-23T22:51:25.974Z,37.83
2023-01-23T22:53:59.379Z,46.85
2023-01-23T22:56:32.124Z,44.78
2023-01-23T22:59:04.237Z,47.70
2023-01-23T23:02:06.286Z,42.88
2023-01-23T23:04:38.807Z,41.03
2023-01-23T23:07:12.728Z,40.55
2023-01-23T23:09:45.521Z,41.67
2023-01-23T23:12:17.591Z,44.88
2023-01-23T23:14:49.684Z,47.53
2023-01-23T23:17:21.843Z,42.13
2023-01-23T23:19:53.958Z,46.47
2023-01-23T23:22:25.917Z,43.25
2023-01-23T23:24:58.257Z,39.97
2023-01-23T23:27:30.383Z,43.58
2023-01-23T23:30:02.477Z,42.53
2023-01-23T23:32:34.458Z,40.92
2023-01-23T23:35:08.146Z,40.42
2023-01-23T23:37:40.144Z,40.05
2023-01-23T23:40:13.934Z,39.05
2023-01-23T23:42:46.064Z,40.10
2023-01-23T23:45:18.311Z,36.83
2023-01-23T23:47:50.899Z,39.53
2023-01-23T23:50:23.643Z,35.30
2023-01-23T23:52:55.854Z,39.30
2023-01-23T23:55:28.129Z,35.45
2023-01-23T23:58:00.136Z,34.30
